Terminal Aerodrome Forecast
Issued by NWS Shreveport, LA

Home | Current Version | Previous Version | Text Only | Print | Product List | Glossary On
Versions: 1 2 3 4 5 6 7 8 9 10 11 12 13 14 15 16 17
212
FTUS44 KSHV 311730
TAFSHV
TAF
KSHV 311730Z 3118/0118 VRB04KT P6SM SCT040 SCT250
     FM312200 VRB04KT P6SM VCTS SCT045CB BKN250
      TEMPO 0100/0104 3SM -TSRA BR BKN040CB
     FM010600 VRB03KT P6SM SCT040 BKN180 BKN250
      TEMPO 0110/0113 5SM BR
     FM011400 17004KT P6SM SCT015 BKN150 BKN250=

USA.gov is the U.S. government's official web portal to all federal, state and local government web resources and services.